Soleil Weather Down

Nearby METAR Reports

 

KCNI - Canton/Cherokee, Georgia, USA
Distance from station: ENE 6mi, 10km
Updated: Sat, 18-Aug-2018 1:15pm EDT
Mostly cloudy
Mostly cloudy
 Wind from SW
Wind: SW 10 mph , 17 km/h
Temperature: 82°F , 28°C
Heat Index: 84°F , 29°C
Dew Point: 66°F , 19°C
Humidity: 58%
Barometer: 30.07 inHg , 1018.3 hPa
Clouds: Mostly cloudy
Visibility: 10 miles , 16 km
Cloud details: Partly cloudy 2500 ft
Mostly cloudy 3400 ft
Mostly cloudy 4000 ft
2018/08/18 17:15 KCNI 181715Z AUTO 22009KT 10SM SCT025 BKN034 BKN040 28/19 A3007 RMK AO2
KRYY - Marietta Mccolum, Georgia, USA
Distance from station: SSW 18mi, 29km
Updated: Sat, 18-Aug-2018 1:38pm EDT
Mostly cloudy
Mostly cloudy
 Wind from WSW
Wind: WSW 12 mph , 19 km/h
Temperature: 84°F , 29°C
Heat Index: 89°F , 32°C
Dew Point: 72°F , 22°C
Humidity: 66%
Barometer: 30.05 inHg , 1017.6 hPa
Clouds: Mostly cloudy
Visibility: 10 miles , 16 km
Cloud details: Mostly cloudy 2800 ft
Mostly cloudy 7000 ft
2018/08/18 17:38 KRYY 181738Z 25010KT 10SM BKN028 BKN070 29/22 A3005 RMK AO2
KVPC - Cartersville, Georgia, USA
Distance from station: WSW 22mi, 35km
Updated: Sat, 18-Aug-2018 12:53pm EDT
Overcast
Overcast
 Wind from calm
Wind: Calm
Temperature: 82°F , 28°C
Heat Index: 86°F , 30°C
Dew Point: 72°F , 22°C
Humidity: 70%
Barometer: 30.05 inHg , 1017.6 hPa
Clouds: Overcast
Visibility: 10 miles , 16 km
Cloud details: Partly cloudy 2500 ft
Partly cloudy 3100 ft
Overcast 4100 ft
2018/08/18 16:53 KVPC 181653Z AUTO 00000KT 10SM SCT025 SCT031 OVC041 28/22 A3005 RMK AO2 SLP162 T02780222
 
KMGE - Dobbins Afb/Mari, Georgia, USA
Distance from station: S 24mi, 39km
Updated: Sat, 18-Aug-2018 12:56pm EDT
Mostly cloudy
Mostly cloudy
 Wind from WSW
Wind: WSW 10 mph , 17 km/h
Temperature: 84°F , 29°C
Heat Index: 89°F , 32°C
Dew Point: 72°F , 22°C
Humidity: 66%
Barometer: 30.06 inHg , 1017.9 hPa
Clouds: Mostly cloudy
Visibility: 10 miles , 16 km
Cloud details: Partly cloudy 2700 ft
Mostly cloudy 3700 ft
Mostly cloudy 25000 ft
2018/08/18 16:56 KMGE 181656Z 25009KT 10SM SCT027 BKN037 BKN250 29/22 A3006 RMK AO2A SLP170 T02920216 $
KPDK - Peachtree/Dekalb, Georgia, USA
Distance from station: SSE 29mi, 47km
Updated: Sat, 18-Aug-2018 12:53pm EDT
Few Clouds
Few Clouds
 Wind from SW
Wind: SW 8 mph , 13 km/h
Temperature: 84°F , 29°C
Heat Index: 89°F , 32°C
Dew Point: 72°F , 22°C
Humidity: 66%
Barometer: 30.06 inHg , 1017.9 hPa
Clouds: Few Clouds
Visibility: 10 miles , 16 km
Cloud details: Few Clouds 4300 ft
Few Clouds 6500 ft
2018/08/18 16:53 KPDK 181653Z 22007KT 10SM FEW043 FEW065 29/22 A3006 RMK AO2 SLP161 T02890222
KFTY - Atlanta/Fulton, Georgia, USA
Distance from station: S 34mi, 54km
Updated: Sat, 18-Aug-2018 1:03pm EDT
Mostly cloudy
Mostly cloudy
 Wind from SSW
Wind: SSW 9 mph , 15 km/h
Temperature: 82°F , 28°C
Heat Index: 87°F , 31°C
Dew Point: 73°F , 23°C
Humidity: 74%
Barometer: 30.06 inHg , 1017.9 hPa
Clouds: Mostly cloudy
Visibility: 10 miles , 16 km
Cloud details: Mostly cloudy 2600 ft
Mostly cloudy 3500 ft
2018/08/18 17:03 KFTY 181703Z 21008KT 10SM BKN026 BKN035 28/23 A3006 RMK AO2 T02830233
 
KPUJ - Atlanta/Paulding, Georgia, USA
Distance from station: SW 34mi, 55km
Updated: Sat, 18-Aug-2018 1:35pm EDT
Mostly cloudy
Mostly cloudy
 Wind from W
Wind: W 5 mph , 7 km/h
Temperature: 81°F , 27°C
Heat Index: 85°F , 29°C
Dew Point: 70°F , 21°C
Humidity: 70%
Barometer: 30.06 inHg , 1017.9 hPa
Clouds: Mostly cloudy
Visibility: 7 miles , 11 km
Cloud details: Partly cloudy 2600 ft
Partly cloudy 3500 ft
Mostly cloudy 6000 ft
2018/08/18 17:35 KPUJ 181735Z AUTO 28004KT 7SM SCT026 SCT035 BKN060 27/21 A3006 RMK AO2
KDNN - Dalton, Georgia, USA
Distance from station: NW 37mi, 59km
Updated: Sat, 18-Aug-2018 1:35pm EDT
Overcast
Overcast
 Wind from SSW
Wind: SSW 6 mph , 9 km/h
Temperature: 82°F , 28°C
Heat Index: 86°F , 30°C
Dew Point: 72°F , 22°C
Humidity: 70%
Barometer: 30.04 inHg , 1017.3 hPa
Clouds: Overcast
Visibility: 10 miles , 16 km
Cloud details: Partly cloudy 2700 ft
Mostly cloudy 4400 ft
Overcast 9000 ft
2018/08/18 17:35 KDNN 181735Z AUTO 21005KT 10SM SCT027 BKN044 OVC090 28/22 A3004 RMK AO2
KLZU - Lawrenceville, Georgia, USA
Distance from station: ESE 37mi, 59km
Updated: Sat, 18-Aug-2018 12:56pm EDT
Mostly cloudy
Mostly cloudy
 Wind from SW
Wind: SW 10 mph , 17 km/h
Temperature: 81°F , 27°C
Heat Index: 85°F , 29°C
Dew Point: 72°F , 22°C
Humidity: 74%
Barometer: 30.07 inHg , 1018.3 hPa
Clouds: Mostly cloudy
Visibility: 10 miles , 16 km
Cloud details: Mostly cloudy 2500 ft
Mostly cloudy 3500 ft
2018/08/18 16:56 KLZU 181656Z 23009KT 10SM BKN025 BKN035 27/22 A3007 RMK AO2 SLP172 T02720222 $
 
KRMG - Rome, Georgia, USA
Distance from station: W 38mi, 61km
Updated: Sat, 18-Aug-2018 12:53pm EDT
Overcast
Overcast
 Wind from W
Wind: W 8 mph , 13 km/h
Temperature: 82°F , 28°C
Heat Index: 86°F , 30°C
Dew Point: 72°F , 22°C
Humidity: 70%
Barometer: 30.03 inHg , 1016.9 hPa
Clouds: Overcast
Visibility: 10 miles , 16 km
Cloud details: Overcast 3500 ft
2018/08/18 16:53 KRMG 181653Z AUTO 26007KT 10SM OVC035 28/22 A3003 RMK AO2 SLP158 T02830217
KGVL - Gainesville, Georgia, USA
Distance from station: E 39mi, 62km
Updated: Sat, 18-Aug-2018 12:53pm EDT
Mostly cloudy
Mostly cloudy
 Wind from WSW
Wind: WSW 12 mph , 19 km/h, Gust: 20 mph , 31 km/h
Temperature: 82°F , 28°C
Heat Index: 87°F , 31°C
Dew Point: 73°F , 23°C
Humidity: 74%
Barometer: 30.08 inHg , 1018.6 hPa
Clouds: Mostly cloudy
Visibility: 10 miles , 16 km
Cloud details: Partly cloudy 2300 ft
Mostly cloudy 3700 ft
2018/08/18 16:53 KGVL 181653Z AUTO 25010G17KT 10SM SCT023 BKN037 28/23 A3008 RMK AO2 SLP170 T02780228
KATL - Atlanta, Georgia, USA
Distance from station: S 44mi, 71km
Updated: Sat, 18-Aug-2018 1:24pm EDT
Mostly cloudy
Mostly cloudy
 Wind from varies
Wind: varies 7 mph , 11 km/h, Gust: 16 mph , 26 km/h
Temperature: 84°F , 29°C
Heat Index: 89°F , 32°C
Dew Point: 72°F , 22°C
Humidity: 66%
Barometer: 30.06 inHg , 1017.9 hPa
Clouds: Mostly cloudy
Visibility: 10 miles , 16 km
Cloud details: Partly cloudy 3000 ft
Mostly cloudy 3800 ft
Mostly cloudy 18000 ft
Mostly cloudy 25000 ft
2018/08/18 17:24 KATL 181724Z VRB06G14KT 10SM SCT030 BKN038 BKN180 BKN250 29/22 A3006 RMK AO2 T02940222